Current Weather

Sohar

Sohar, Oman (OOSH)

Report from: Monday, July 22, 2024 12:50 PM +04
Current time: Monday, July 22, 2024 2:11 PM +04

Nearby weather – Weather history – Daily summaries
Weather forecast

Temperature37.0°C (98.6°F)
Heat index56.5°C (133.7°F)
Dew point30.0°C (86.0°F)
Winds 11 kts (5.7 m/s, 12.7 mph) Northeast (40°)
Altimeter29.38 in.Hg (995 mB)
Precip. events QF 1:32 PM
Relative humidity68 %
Density altitude3,661 ft. (1,116 m)
Remarks Fully automated report
Raw dataOOSH 220850Z AUTO 04011KT //// ////// 37/30 Q0995 RMK QFE0992 RH065? PR000.0
An error has occurred. This application may no longer respond until reloaded. Reload 🗙